• Join FlightAware (Why Join?)
  • Login
  • US Flag 
05:49PM EDT


 

Airport Tracker/Info


-or-


 

Live Flight TrackerFlight Track Log ✈ JIA2416 ✈ 30-Jun-2013 ✈ KCLT - KPGV

Flight Track Log - Related Links

Times and Time Zones

All times are in EDT time to prevent confusion due to time zone crossing. See the JIA2416 flight status page for this flight to view local times or setup timezone preferences in your user account.

Time Position Orientation Groundspeed Altitude Reporting Facility
EDT Latitude Longitude Course Direction KTS MPH feet Rate Location/Type
06:28PM 35.1969 -80.9356 North 148 170 1,600  Level Atlanta Center
06:29PM 35.1531 -80.9294 174° South 209 241 2,300 1,500 Climbing Atlanta Center
06:30PM 35.1058 -80.8778 138° Southeast 290 334 4,200 2,160 Climbing Atlanta Center
06:31PM 35.0939 -80.8200 104° East 290 334 5,500 2,220 Climbing Atlanta Center
06:32PM 35.1508 -80.7569 42° Northeast 291 335 7,700 1,200 Climbing Atlanta Center
06:33PM 35.2535 -80.5285 30° Northeast  Level FlightAware Approximate
06:33PM 35.2139 -80.6983 37° Northeast 291 335 8,000  Level Atlanta Center
06:34PM 35.3284 -80.4667 North  Level FlightAware Approximate
06:34PM 35.2789 -80.6322 40° Northeast 291 335 9,700  Level Atlanta Center
06:35PM 35.3433 -80.5556 44° Northeast 304 350 11,000 1,560 Climbing Atlanta Center
06:36PM 35.3672 -80.4400 76° East 322 371 12,900 1,860 Climbing Atlanta Center
06:37PM 35.3928 -80.3217 75° East 344 396 14,800 1,380 Climbing Atlanta Center
06:39PM 35.4553 -80.0544 74° East 368 423 17,600 1,500 Climbing Washington Center
06:40PM 35.4889 -79.9364 71° East 373 429 19,900 1,080 Climbing Washington Center
06:42PM 35.5497 -79.6869 73° East 373 429 21,000 360 Climbing Washington Center
06:43PM 35.5811 -79.5633 73° East 378 435 21,000  Level Washington Center
06:44PM 35.6100 -79.4397 74° East 378 435 21,000  Level Washington Center
06:45PM 35.6144 -79.3069 88° East 373 429 21,000  Level Washington Center
06:46PM 35.6183 -79.1717 88° East 373 429 21,000  Level Washington Center
06:47PM 35.6203 -79.0364 89° East 385 443 21,000  Level Washington Center
06:48PM 35.6239 -78.9089 88° East 385 443 21,000  Level Washington Center
06:49PM 35.6256 -78.7758 89° East 385 443 21,000 -660 Level Washington Center
06:50PM 35.6294 -78.6278 88° East 385 443 19,800 -1,440 Descending Washington Center
06:51PM 35.6308 -78.4847 89° East 396 456 18,100 -1,680 Descending Washington Center
06:52PM 35.6300 -78.3442 90° East 401 461 16,500 -1,680 Descending Washington Center
06:53PM 35.6311 -78.2039 89° East 401 461 14,900 -2,040 Descending Washington Center
06:54PM 35.6336 -78.0786 89° East 394 453 12,500 -2,220 Descending Washington Center
06:55PM 35.6547 -77.9719 76° East 332 382 10,500 -2,460 Descending Washington Center
06:56PM 35.6878 -77.8783 66° East 314 361 7,700 -2,700 Descending Washington Center
06:57PM 35.7186 -77.7869 67° East 300 345 5,300 -1,380 Descending Washington Center
06:58PM 35.7517 -77.6958 66° East 289 333 5,000 -600 Descending Washington Center
06:59PM 35.7864 -77.6097 64° Northeast 284 327 4,100 -1,020 Descending Washington Center
07:00PM 35.8192 -77.5233 65° Northeast 279 321 3,000 -1,140 Descending Washington Center
07:02PM 35.6866 -77.4233 149° Southeast  Level FlightAware Approximate
07:09PM 35.6333 -77.3833 149° Southeast  Level FlightAware Approximate
07:10PM 35.6353 -77.3853 149° Southeast  Level Estimated